createdAt,value
2022-12-11T00:00:57.483Z,99522.73
2022-12-11T00:06:18.412Z,99518.31
2022-12-11T00:11:22.712Z,99512.23
2022-12-11T00:16:27.219Z,99505.34
2022-12-11T00:21:30.650Z,99503.48
2022-12-11T00:26:33.612Z,99503.14
2022-12-11T00:31:36.536Z,99499.59
2022-12-11T00:36:39.890Z,99499.85
2022-12-11T00:41:43.451Z,99505.19
2022-12-11T00:46:46.963Z,99508.06
2022-12-11T00:51:49.867Z,99504.42
2022-12-11T00:56:52.878Z,99504.46
2022-12-11T01:01:55.782Z,99508.65
2022-12-11T01:06:58.680Z,99509.63
2022-12-11T01:12:01.586Z,99508.87
2022-12-11T01:17:04.644Z,99499.80
2022-12-11T01:22:07.906Z,99495.11
2022-12-11T01:27:10.812Z,99491.93
2022-12-11T01:32:13.819Z,99486.25
2022-12-11T01:37:16.722Z,99481.27
2022-12-11T01:42:20.751Z,99481.77
2022-12-11T01:47:24.168Z,99491.21
2022-12-11T01:52:27.076Z,99491.81
2022-12-11T01:57:30.281Z,99487.23
2022-12-11T02:02:34.131Z,99481.23
2022-12-11T02:07:41.825Z,99480.38
2022-12-11T02:13:46.579Z,99472.98
2022-12-11T02:19:01.262Z,99468.15
2022-12-11T02:24:22.801Z,99466.34
2022-12-11T02:29:32.975Z,99468.75
2022-12-11T02:34:46.908Z,99467.79
2022-12-11T02:39:54.351Z,99479.40
2022-12-11T02:45:00.726Z,99473.65
2022-12-11T02:50:09.914Z,99460.55
2022-12-11T02:55:15.656Z,99443.75
2022-12-11T03:00:19.438Z,99445.31
2022-12-11T03:05:22.592Z,99451.50
2022-12-11T03:10:25.912Z,99442.19
2022-12-11T03:15:37.411Z,99442.16
2022-12-11T03:20:57.523Z,99439.06
2022-12-11T03:26:11.522Z,99444.34
2022-12-11T03:31:27.596Z,99443.41
2022-12-11T03:36:38.385Z,99435.87
2022-12-11T03:41:44.155Z,99430.45
2022-12-11T03:46:48.477Z,99427.77
2022-12-11T03:51:54.584Z,99424.95
2022-12-11T03:57:00.244Z,99425.23
2022-12-11T04:02:10.987Z,99416.42
2022-12-11T04:07:14.035Z,99414.00
2022-12-11T04:12:17.398Z,99414.81
2022-12-11T04:17:38.790Z,99414.73
2022-12-11T04:23:00.026Z,99410.27
2022-12-11T04:28:02.932Z,99408.25
2022-12-11T04:33:07.022Z,99406.54
2022-12-11T04:38:09.964Z,99409.96
2022-12-11T04:43:12.968Z,99412.02
2022-12-11T04:48:15.975Z,99410.98
2022-12-11T04:53:18.878Z,99409.78
2022-12-11T04:58:22.716Z,99411.45
2022-12-11T05:03:25.608Z,99409.05
2022-12-11T05:08:28.718Z,99406.15
2022-12-11T05:13:32.724Z,99400.77
2022-12-11T05:18:35.936Z,99397.25
2022-12-11T05:23:39.890Z,99399.76
2022-12-11T05:28:43.457Z,99396.90
2022-12-11T05:33:49.074Z,99396.94
2022-12-11T05:38:52.859Z,99397.15
2022-12-11T05:43:55.807Z,99394.58
2022-12-11T05:49:01.169Z,99397.43
2022-12-11T05:54:05.323Z,99404.38
2022-12-11T05:59:09.331Z,99409.85
2022-12-11T06:04:13.745Z,99408.84
2022-12-11T06:09:17.290Z,99410.83
2022-12-11T06:14:20.501Z,99409.56
2022-12-11T06:19:24.022Z,99400.00
2022-12-11T06:24:26.922Z,99394.75
2022-12-11T06:29:29.827Z,99393.95
2022-12-11T06:34:32.836Z,99398.02
2022-12-11T06:39:35.739Z,99399.83
2022-12-11T06:44:38.639Z,99397.40
2022-12-11T06:49:41.546Z,99397.56
2022-12-11T06:54:44.448Z,99397.45
2022-12-11T06:59:47.458Z,99394.08
2022-12-11T07:04:54.867Z,99392.88
2022-12-11T07:10:04.052Z,99393.23
2022-12-11T07:15:11.306Z,99387.00
2022-12-11T07:20:15.049Z,99385.00
2022-12-11T07:25:18.154Z,99380.20
2022-12-11T07:30:21.060Z,99373.55
2022-12-11T07:35:23.963Z,99362.48
2022-12-11T07:40:26.918Z,99362.83
2022-12-11T07:45:30.019Z,99365.02
2022-12-11T07:50:38.152Z,99365.48
2022-12-11T07:55:42.748Z,99369.79
2022-12-11T08:00:45.652Z,99373.15
2022-12-11T08:05:50.124Z,99372.17
2022-12-11T08:10:53.098Z,99372.70
2022-12-11T08:15:56.207Z,99372.45
2022-12-11T08:20:59.112Z,99371.30
2022-12-11T08:26:04.277Z,99366.66
2022-12-11T08:31:09.504Z,99370.91
2022-12-11T08:36:15.707Z,99368.52
2022-12-11T08:41:30.639Z,99361.79
2022-12-11T08:46:33.752Z,99354.70
2022-12-11T08:51:36.710Z,99355.93
2022-12-11T08:56:39.595Z,99345.83
2022-12-11T09:01:42.462Z,99342.98
2022-12-11T09:06:45.524Z,99337.18
2022-12-11T09:11:48.427Z,99338.15
2022-12-11T09:16:51.330Z,99340.34
2022-12-11T09:21:54.236Z,99334.30
2022-12-11T09:26:57.039Z,99325.39
2022-12-11T09:32:00.796Z,99315.52
2022-12-11T09:37:03.770Z,99304.51
2022-12-11T09:42:10.050Z,99293.09
2022-12-11T09:47:36.197Z,99289.45
2022-12-11T09:53:17.811Z,99280.61
2022-12-11T09:58:35.974Z,99271.14
2022-12-11T10:04:02.500Z,99277.46
2022-12-11T10:09:19.876Z,99267.23
2022-12-11T10:14:49.610Z,99261.09
2022-12-11T10:19:53.639Z,99251.95
2022-12-11T10:25:15.324Z,99246.64
2022-12-11T10:30:38.138Z,99245.27
2022-12-11T10:35:58.366Z,99243.58
2022-12-11T10:41:04.448Z,99235.29
2022-12-11T10:46:23.473Z,99229.51
2022-12-11T10:51:37.598Z,99235.93
2022-12-11T10:56:40.601Z,99227.64
2022-12-11T11:01:47.665Z,99222.70
2022-12-11T11:07:11.700Z,99215.71
2022-12-11T11:12:26.623Z,99208.36
2022-12-11T11:17:35.103Z,99194.27
2022-12-11T11:22:50.829Z,99186.52
2022-12-11T11:27:55.265Z,99185.38
2022-12-11T11:33:02.673Z,99182.70
2022-12-11T11:38:21.357Z,99178.13
2022-12-11T11:43:37.267Z,99181.94
2022-12-11T11:48:58.767Z,99173.80
2022-12-11T11:54:10.040Z,99164.28
2022-12-11T11:59:18.841Z,99162.77
2022-12-11T12:04:21.747Z,99160.61
2022-12-11T12:09:43.734Z,99161.79
2022-12-11T12:15:08.851Z,99163.25
2022-12-11T12:20:23.809Z,99153.92
2022-12-11T12:25:40.949Z,99144.59
2022-12-11T12:31:23.225Z,99139.38
2022-12-11T12:36:50.756Z,99132.10
2022-12-11T12:42:07.884Z,99128.75
2022-12-11T12:47:15.513Z,99124.12
2022-12-11T12:52:26.629Z,99118.91
2022-12-11T12:57:30.533Z,99111.79
2022-12-11T13:02:33.471Z,99100.81
2022-12-11T13:07:36.545Z,99095.34
2022-12-11T13:12:46.523Z,99094.02
2022-12-11T13:17:49.299Z,99088.34
2022-12-11T13:23:07.278Z,99093.38
2022-12-11T13:28:23.488Z,99088.27
2022-12-11T13:33:28.440Z,99088.96
2022-12-11T13:38:31.447Z,99084.89
2022-12-11T13:43:34.454Z,99084.76
2022-12-11T13:48:43.812Z,99078.52
2022-12-11T13:53:47.636Z,99074.80
2022-12-11T13:58:50.748Z,99075.85
2022-12-11T14:03:59.694Z,99067.35
2022-12-11T14:09:05.563Z,99063.41
2022-12-11T14:14:34.378Z,99055.92
2022-12-11T14:19:37.587Z,99051.41
2022-12-11T14:24:50.161Z,99043.44
2022-12-11T14:29:53.848Z,99032.63
2022-12-11T14:34:58.132Z,99025.92
2022-12-11T14:40:17.362Z,99023.55
2022-12-11T14:45:40.303Z,99020.56
2022-12-11T14:50:48.670Z,99010.45
2022-12-11T14:55:52.907Z,99006.31
2022-12-11T15:01:02.578Z,98999.55
2022-12-11T15:06:34.147Z,98995.67
2022-12-11T15:11:37.765Z,98992.58
2022-12-11T15:16:42.881Z,98991.99
2022-12-11T15:21:46.306Z,98993.34
2022-12-11T15:26:49.242Z,98985.89
2022-12-11T15:32:03.007Z,98983.05
2022-12-11T15:37:38.675Z,98976.08
2022-12-11T15:42:42.634Z,98973.02
2022-12-11T15:47:46.525Z,98969.98
2022-12-11T15:52:51.481Z,98966.26
2022-12-11T15:57:57.661Z,98964.20
2022-12-11T16:03:00.773Z,98960.81
2022-12-11T16:08:04.336Z,98959.46
2022-12-11T16:13:07.299Z,98962.02
2022-12-11T16:18:13.173Z,98954.57
2022-12-11T16:23:17.509Z,98949.36
2022-12-11T16:28:21.434Z,98949.79
2022-12-11T16:33:24.343Z,98940.50
2022-12-11T16:38:27.355Z,98929.69
2022-12-11T16:43:30.355Z,98931.73
2022-12-11T16:48:33.256Z,98939.48
2022-12-11T16:53:36.774Z,98939.40
2022-12-11T16:58:40.908Z,98936.69
2022-12-11T17:03:44.636Z,98926.40
2022-12-11T17:08:47.896Z,98921.55
2022-12-11T17:13:59.148Z,98926.09
2022-12-11T17:19:03.582Z,98923.64
2022-12-11T17:24:08.125Z,98922.05
2022-12-11T17:29:12.457Z,98921.16
2022-12-11T17:34:16.188Z,98923.90
2022-12-11T17:39:19.193Z,98924.92
2022-12-11T17:44:22.198Z,98922.61
2022-12-11T17:49:25.578Z,98922.35
2022-12-11T17:54:28.521Z,98918.60
2022-12-11T17:59:31.629Z,98908.49
2022-12-11T18:04:34.533Z,98906.63
2022-12-11T18:09:40.406Z,98907.45
2022-12-11T18:14:43.309Z,98908.17
2022-12-11T18:19:46.395Z,98903.66
2022-12-11T18:24:49.939Z,98898.23
2022-12-11T18:29:52.841Z,98898.02
2022-12-11T18:34:55.746Z,98900.63
2022-12-11T18:39:58.681Z,98899.09
2022-12-11T18:45:02.168Z,98892.19
2022-12-11T18:50:07.925Z,98886.21
2022-12-11T18:55:11.601Z,98887.17
2022-12-11T19:00:16.477Z,98890.29
2022-12-11T19:05:19.619Z,98893.55
2022-12-11T19:10:22.729Z,98889.84
2022-12-11T19:15:25.634Z,98885.44
2022-12-11T19:25:51.625Z,98878.95
2022-12-11T19:30:54.623Z,98873.13
2022-12-11T19:36:05.975Z,98867.35
2022-12-11T19:41:13.332Z,98869.43
2022-12-11T19:46:17.796Z,98862.72
2022-12-11T19:51:23.760Z,98858.08
2022-12-11T19:56:26.856Z,98857.52
2022-12-11T20:01:36.111Z,98866.35
2022-12-11T20:06:43.111Z,98865.35
2022-12-11T20:11:47.891Z,98860.63
2022-12-11T20:17:10.081Z,98855.38
2022-12-11T20:22:14.248Z,98845.13
2022-12-11T20:27:18.073Z,98838.51
2022-12-11T20:32:21.082Z,98843.64
2022-12-11T20:37:26.201Z,98840.87
2022-12-11T20:42:29.140Z,98833.19
2022-12-11T20:47:32.047Z,98826.86
2022-12-11T20:52:35.358Z,98821.30
2022-12-11T20:57:43.466Z,98816.48
2022-12-11T21:02:49.972Z,98815.02
2022-12-11T21:07:54.623Z,98813.16
2022-12-11T21:12:57.524Z,98811.80
2022-12-11T21:18:00.425Z,98802.09
2022-12-11T21:23:04.114Z,98792.80
2022-12-11T21:28:07.054Z,98790.02
2022-12-11T21:33:10.468Z,98794.57
2022-12-11T21:38:13.886Z,98787.11
2022-12-11T21:43:16.999Z,98772.85
2022-12-11T21:48:19.898Z,98765.45
2022-12-11T21:53:23.303Z,98758.70
2022-12-11T21:58:26.216Z,98754.73
2022-12-11T22:03:29.427Z,98750.48
2022-12-11T22:08:32.484Z,98738.49
2022-12-11T22:13:35.747Z,98735.45
2022-12-11T22:18:39.368Z,98738.48
2022-12-11T22:23:44.016Z,98732.56
2022-12-11T22:28:47.532Z,98730.33
2022-12-11T22:33:54.326Z,98730.21
2022-12-11T22:38:57.232Z,98730.01
2022-12-11T22:44:00.551Z,98720.20
2022-12-11T22:49:03.556Z,98718.09
2022-12-11T22:54:06.662Z,98713.81
2022-12-11T22:59:09.563Z,98709.78
2022-12-11T23:04:12.573Z,98711.95
2022-12-11T23:09:15.766Z,98702.14
2022-12-11T23:14:19.595Z,98701.18
2022-12-11T23:19:25.608Z,98699.95
2022-12-11T23:24:29.103Z,98699.67
2022-12-11T23:29:32.415Z,98699.86
2022-12-11T23:34:35.318Z,98697.38
2022-12-11T23:39:38.186Z,98698.60
2022-12-11T23:44:41.537Z,98700.60
2022-12-11T23:49:44.445Z,98703.45
2022-12-11T23:54:47.550Z,98703.80
2022-12-11T23:59:50.658Z,98697.58
